createdAt,value
2019-01-18T00:01:26.559Z,22.20
2019-01-18T00:06:33.472Z,22.10
2019-01-18T00:11:40.895Z,22.20
2019-01-18T00:16:47.202Z,22.10
2019-01-18T00:21:54.079Z,22.10
2019-01-18T00:27:00.792Z,22.10
2019-01-18T00:32:07.422Z,22.10
2019-01-18T00:37:13.573Z,22.10
2019-01-18T00:42:19.601Z,22.10
2019-01-18T00:47:26.592Z,22.10
2019-01-18T00:52:33.682Z,22.10
2019-01-18T00:57:40.412Z,22.10
2019-01-18T01:02:47.534Z,22.10
2019-01-18T01:07:54.252Z,22.10
2019-01-18T01:13:19.138Z,22.10
2019-01-18T01:18:25.472Z,22.10
2019-01-18T01:23:32.330Z,22.00
2019-01-18T01:28:38.162Z,22.00
2019-01-18T01:33:45.076Z,22.00
2019-01-18T01:38:52.947Z,22.00
2019-01-18T01:43:59.482Z,21.90
2019-01-18T01:49:05.719Z,22.00
2019-01-18T01:54:11.508Z,21.90
2019-01-18T01:59:17.731Z,22.00
2019-01-18T02:04:24.881Z,21.90
2019-01-18T02:09:31.023Z,21.90
2019-01-18T02:14:36.610Z,21.90
2019-01-18T02:19:42.543Z,21.90
2019-01-18T02:24:48.995Z,21.90
2019-01-18T02:29:56.736Z,21.90
2019-01-18T02:35:02.203Z,21.90
2019-01-18T02:40:09.242Z,21.80
2019-01-18T02:45:16.932Z,21.80
2019-01-18T02:50:23.183Z,21.80
2019-01-18T02:55:29.856Z,21.80
2019-01-18T03:00:35.643Z,21.80
2019-01-18T03:05:41.443Z,21.80
2019-01-18T03:10:47.913Z,21.80
2019-01-18T03:15:53.742Z,21.80
2019-01-18T03:21:00.113Z,21.80
2019-01-18T03:26:06.263Z,21.70
2019-01-18T03:31:12.830Z,21.70
2019-01-18T03:36:19.252Z,21.70
2019-01-18T03:41:24.715Z,21.70
2019-01-18T03:46:30.466Z,21.70
2019-01-18T03:51:36.282Z,21.70
2019-01-18T03:56:42.972Z,21.70
2019-01-18T04:01:48.983Z,21.70
2019-01-18T04:06:55.263Z,21.70
2019-01-18T04:12:02.381Z,21.60
2019-01-18T04:17:08.776Z,21.60
2019-01-18T04:22:16.133Z,21.60
2019-01-18T04:27:21.933Z,21.60
2019-01-18T04:32:28.672Z,21.60
2019-01-18T04:37:35.463Z,21.60
2019-01-18T04:42:42.633Z,21.50
2019-01-18T04:47:49.095Z,21.50
2019-01-18T04:52:55.214Z,21.50
2019-01-18T04:58:01.009Z,21.50
2019-01-18T05:03:07.493Z,21.50
2019-01-18T05:08:14.211Z,21.50
2019-01-18T05:13:20.613Z,21.50
2019-01-18T05:18:26.712Z,21.50
2019-01-18T05:23:32.701Z,21.50
2019-01-18T05:28:38.792Z,21.50
2019-01-18T05:33:44.666Z,21.40
2019-01-18T05:38:50.572Z,21.40
2019-01-18T05:43:57.003Z,21.40
2019-01-18T05:49:02.871Z,21.40
2019-01-18T05:54:08.712Z,21.30
2019-01-18T05:59:14.734Z,21.30
2019-01-18T06:04:20.954Z,21.30
2019-01-18T06:09:27.723Z,21.20
2019-01-18T06:14:33.583Z,21.20
2019-01-18T06:19:39.302Z,21.20
2019-01-18T06:24:45.079Z,21.20
2019-01-18T06:29:51.994Z,21.20
2019-01-18T06:34:57.732Z,21.10
2019-01-18T06:40:03.322Z,21.10
2019-01-18T06:45:10.532Z,21.10
2019-01-18T06:50:18.482Z,21.10
2019-01-18T06:55:25.293Z,21.10
2019-01-18T07:00:32.845Z,21.10
2019-01-18T07:05:39.373Z,21.10
2019-01-18T07:10:45.503Z,21.10
2019-01-18T07:15:51.511Z,21.10
2019-01-18T07:20:58.092Z,21.10
2019-01-18T07:26:03.884Z,21.10
2019-01-18T07:31:30.131Z,21.10
2019-01-18T07:36:35.832Z,21.10
2019-01-18T07:41:41.592Z,21.10
2019-01-18T07:46:47.142Z,21.10
2019-01-18T07:51:53.145Z,21.00
2019-01-18T07:57:00.042Z,21.00
2019-01-18T08:02:05.750Z,21.10
2019-01-18T08:07:12.832Z,21.10
2019-01-18T08:12:18.582Z,21.10
2019-01-18T08:17:25.062Z,21.10
2019-01-18T08:22:31.012Z,21.10
2019-01-18T08:27:36.842Z,21.10
2019-01-18T08:32:43.374Z,21.10
2019-01-18T08:37:49.083Z,21.10
2019-01-18T08:42:54.661Z,21.20
2019-01-18T08:48:00.912Z,21.20
2019-01-18T08:53:07.913Z,21.20
2019-01-18T08:58:14.192Z,21.20
2019-01-18T09:03:20.503Z,21.20
2019-01-18T09:08:26.904Z,21.30
2019-01-18T09:13:34.184Z,21.30
2019-01-18T09:18:40.062Z,21.30
2019-01-18T09:23:46.382Z,21.20
2019-01-18T09:28:52.003Z,21.20
2019-01-18T09:33:57.842Z,21.20
2019-01-18T09:39:13.434Z,21.30
2019-01-18T09:44:19.623Z,21.30
2019-01-18T09:49:25.112Z,21.30
2019-01-18T09:54:31.269Z,21.40
2019-01-18T09:59:36.733Z,21.40
2019-01-18T10:04:42.972Z,21.40
2019-01-18T10:09:49.742Z,21.50
2019-01-18T10:14:56.072Z,20.90
2019-01-18T10:20:02.392Z,20.70
2019-01-18T10:25:09.854Z,20.60
2019-01-18T10:30:20.652Z,20.70
2019-01-18T10:35:26.542Z,20.80
2019-01-18T10:40:32.383Z,20.90
2019-01-18T10:45:39.722Z,21.10
2019-01-18T10:50:45.962Z,21.10
2019-01-18T10:55:52.703Z,21.20
2019-01-18T11:00:58.250Z,21.20
2019-01-18T11:06:03.993Z,21.30
2019-01-18T11:11:09.752Z,21.30
2019-01-18T11:16:15.671Z,21.40
2019-01-18T11:21:27.163Z,21.50
2019-01-18T11:26:33.579Z,21.70
2019-01-18T11:31:39.034Z,21.80
2019-01-18T11:36:45.672Z,22.00
2019-01-18T11:41:51.185Z,22.20
2019-01-18T11:46:57.712Z,22.30
2019-01-18T11:52:04.332Z,22.50
2019-01-18T11:57:10.292Z,22.60
2019-01-18T12:02:21.919Z,22.60
2019-01-18T12:07:24.003Z,22.70
2019-01-18T12:12:30.005Z,22.80
2019-01-18T12:17:35.994Z,22.90
2019-01-18T12:22:41.622Z,23.00
2019-01-18T12:27:48.772Z,23.00
2019-01-18T12:32:54.689Z,22.90
2019-01-18T12:38:00.533Z,22.90
2019-01-18T12:43:06.233Z,22.70
2019-01-18T12:48:13.972Z,22.60
2019-01-18T12:53:20.072Z,22.60
2019-01-18T12:58:25.812Z,22.50
2019-01-18T13:03:32.196Z,22.40
2019-01-18T13:08:38.443Z,22.40
2019-01-18T13:13:45.273Z,22.40
2019-01-18T13:18:54.302Z,22.40
2019-01-18T13:24:00.014Z,22.50
2019-01-18T13:29:06.392Z,22.50
2019-01-18T13:34:13.352Z,22.60
2019-01-18T13:39:19.112Z,22.70
2019-01-18T13:44:26.345Z,23.00
2019-01-18T13:49:32.262Z,23.20
2019-01-18T13:54:37.473Z,23.40
2019-01-18T13:59:42.944Z,23.60
2019-01-18T14:04:48.433Z,23.60
2019-01-18T14:09:53.966Z,23.70
2019-01-18T14:14:59.714Z,23.60
2019-01-18T14:20:06.562Z,23.50
2019-01-18T14:25:12.352Z,23.50
2019-01-18T14:30:23.364Z,23.50
2019-01-18T14:35:29.243Z,23.50
2019-01-18T14:40:34.924Z,23.50
2019-01-18T14:45:42.193Z,23.50
2019-01-18T14:50:48.083Z,23.30
2019-01-18T14:55:53.803Z,23.20
2019-01-18T15:00:59.423Z,23.00
2019-01-18T15:06:05.452Z,23.00
2019-01-18T15:11:12.536Z,22.90
2019-01-18T15:16:18.343Z,22.80
2019-01-18T15:21:23.914Z,22.70
2019-01-18T15:26:30.233Z,22.70
2019-01-18T15:31:35.891Z,22.60
2019-01-18T15:36:41.443Z,22.50
2019-01-18T15:41:46.992Z,22.40
2019-01-18T15:46:53.043Z,22.40
2019-01-18T15:51:58.734Z,22.30
2019-01-18T15:57:05.172Z,22.30
2019-01-18T16:02:11.213Z,22.30
2019-01-18T16:07:18.012Z,22.20
2019-01-18T16:12:25.191Z,22.30
2019-01-18T16:17:32.743Z,22.20
2019-01-18T16:22:39.093Z,22.20
2019-01-18T16:27:44.763Z,22.20
2019-01-18T16:32:50.483Z,22.10
2019-01-18T16:37:56.411Z,22.00
2019-01-18T16:43:05.582Z,22.00
2019-01-18T16:48:11.432Z,21.90
2019-01-18T16:53:17.002Z,21.90
2019-01-18T16:58:23.012Z,21.90
2019-01-18T17:03:30.503Z,21.80
2019-01-18T17:08:36.524Z,21.70
2019-01-18T17:13:43.063Z,21.70
2019-01-18T17:18:48.972Z,21.70
2019-01-18T17:23:54.611Z,21.70
2019-01-18T17:29:01.838Z,21.70
2019-01-18T17:34:08.793Z,21.70
2019-01-18T17:39:40.663Z,21.70
2019-01-18T17:45:12.794Z,21.60
2019-01-18T17:51:09.147Z,21.60
2019-01-18T17:57:08.433Z,21.60
2019-01-18T18:02:50.452Z,21.60
2019-01-18T18:08:45.392Z,21.50
2019-01-18T18:14:05.942Z,21.50
2019-01-18T18:19:54.352Z,21.50
2019-01-18T18:25:30.842Z,21.50
2019-01-18T18:31:05.704Z,21.50
2019-01-18T18:37:02.695Z,21.50
2019-01-18T18:42:58.233Z,21.40
2019-01-18T18:48:30.414Z,21.40
2019-01-18T18:54:02.672Z,21.40
2019-01-18T18:59:50.675Z,21.40
2019-01-18T19:05:15.521Z,21.40
2019-01-18T19:11:02.798Z,21.30
2019-01-18T19:16:36.052Z,21.30
2019-01-18T19:22:31.891Z,21.40
2019-01-18T19:28:28.252Z,21.40
2019-01-18T19:33:44.072Z,21.40
2019-01-18T19:39:51.543Z,21.30
2019-01-18T19:45:39.292Z,21.30
2019-01-18T19:51:15.483Z,21.30
2019-01-18T19:56:54.226Z,21.30
2019-01-18T20:02:45.092Z,21.30
2019-01-18T20:08:26.244Z,21.20
2019-01-18T20:14:22.622Z,21.20
2019-01-18T20:20:02.333Z,21.20
2019-01-18T20:25:26.174Z,21.10
2019-01-18T20:31:00.752Z,21.10
2019-01-18T20:36:35.721Z,21.10
2019-01-18T20:42:44.095Z,21.10
2019-01-18T20:48:18.954Z,21.10
2019-01-18T20:54:05.823Z,21.10
2019-01-18T20:59:29.442Z,21.10
2019-01-18T21:05:19.128Z,21.10
2019-01-18T21:10:50.372Z,21.10
2019-01-18T21:16:46.974Z,21.10
2019-01-18T21:22:53.492Z,21.00
2019-01-18T21:29:12.693Z,21.00
2019-01-18T21:35:09.553Z,21.00
2019-01-18T21:41:18.156Z,21.00
2019-01-18T21:47:25.428Z,21.00
2019-01-18T21:54:01.446Z,21.00
2019-01-18T22:00:41.415Z,21.00
2019-01-18T22:06:58.059Z,21.00
2019-01-18T22:12:54.950Z,21.00
2019-01-18T22:18:31.469Z,21.00
2019-01-18T22:23:47.453Z,21.00
2019-01-18T22:29:28.424Z,21.00
2019-01-18T22:35:21.284Z,21.00
2019-01-18T22:41:04.460Z,21.00
2019-01-18T22:46:41.810Z,21.00
2019-01-18T22:52:25.272Z,21.00
2019-01-18T22:58:07.920Z,21.00
2019-01-18T23:03:54.740Z,21.00
2019-01-18T23:09:36.930Z,21.00
2019-01-18T23:14:58.450Z,21.00
2019-01-18T23:20:51.890Z,21.00
2019-01-18T23:26:42.850Z,20.90
2019-01-18T23:32:27.672Z,21.00
2019-01-18T23:38:14.040Z,21.00
2019-01-18T23:44:07.570Z,21.00
2019-01-18T23:49:57.611Z,21.00
2019-01-18T23:55:35.272Z,21.00
